createdAt,value
2018-03-07T00:00:05.278Z,955.13
2018-03-07T00:01:05.196Z,955.15
2018-03-07T00:02:05.110Z,955.15
2018-03-07T00:03:05.040Z,955.15
2018-03-07T00:04:04.942Z,955.17
2018-03-07T00:05:04.856Z,955.18
2018-03-07T00:06:04.776Z,955.19
2018-03-07T00:07:04.688Z,955.19
2018-03-07T00:08:04.601Z,955.20
2018-03-07T00:09:04.518Z,955.21
2018-03-07T00:10:04.433Z,955.21
2018-03-07T00:11:04.347Z,955.18
2018-03-07T00:12:04.265Z,955.18
2018-03-07T00:13:04.179Z,955.22
2018-03-07T00:14:04.097Z,955.23
2018-03-07T00:15:04.012Z,955.21
2018-03-07T00:16:03.933Z,955.23
2018-03-07T00:17:03.877Z,955.24
2018-03-07T00:18:03.758Z,955.22
2018-03-07T00:19:03.675Z,955.23
2018-03-07T00:20:03.591Z,955.22
2018-03-07T00:21:03.501Z,955.21
2018-03-07T00:22:03.418Z,955.23
2018-03-07T00:23:03.335Z,955.22
2018-03-07T00:24:03.251Z,955.19
2018-03-07T00:25:03.166Z,955.21
2018-03-07T00:26:03.095Z,955.20
2018-03-07T00:27:03.039Z,955.19
2018-03-07T00:28:02.913Z,955.23
2018-03-07T00:29:02.827Z,955.20
2018-03-07T00:30:02.741Z,955.24
2018-03-07T00:31:02.656Z,955.23
2018-03-07T00:32:02.574Z,955.25
2018-03-07T00:33:02.489Z,955.28
2018-03-07T00:34:02.405Z,955.24
2018-03-07T00:35:02.324Z,955.30
2018-03-07T00:36:02.297Z,955.26
2018-03-07T00:37:02.153Z,955.28
2018-03-07T00:38:02.072Z,955.25
2018-03-07T00:39:01.981Z,955.30
2018-03-07T00:40:01.896Z,955.27
2018-03-07T00:41:01.811Z,955.26
2018-03-07T00:42:01.727Z,955.25
2018-03-07T00:43:01.643Z,955.27
2018-03-07T00:44:01.578Z,955.25
2018-03-07T00:45:01.471Z,955.25
2018-03-07T00:46:01.392Z,955.21
2018-03-07T00:47:01.304Z,955.25
2018-03-07T00:48:01.219Z,955.25
2018-03-07T00:49:01.133Z,955.23
2018-03-07T00:50:01.075Z,955.24
2018-03-07T00:51:00.967Z,955.30
2018-03-07T00:52:00.884Z,955.29
2018-03-07T00:53:00.797Z,955.28
2018-03-07T00:54:00.723Z,955.28
2018-03-07T00:55:00.632Z,955.28
2018-03-07T00:56:00.542Z,955.30
2018-03-07T00:57:00.457Z,955.31
2018-03-07T00:58:00.374Z,955.33
2018-03-07T00:59:00.290Z,955.34
2018-03-07T01:00:00.204Z,955.26
2018-03-07T01:01:00.120Z,955.29
2018-03-07T01:02:00.036Z,955.35
2018-03-07T01:02:59.950Z,955.33
2018-03-07T01:03:59.865Z,955.31
2018-03-07T01:04:59.783Z,955.30
2018-03-07T01:05:59.727Z,955.35
2018-03-07T01:06:59.637Z,955.32
2018-03-07T01:07:59.527Z,955.32
2018-03-07T01:08:59.446Z,955.30
2018-03-07T01:09:59.361Z,955.30
2018-03-07T01:10:59.281Z,955.31
2018-03-07T01:11:59.190Z,955.30
2018-03-07T01:12:59.103Z,955.31
2018-03-07T01:13:59.076Z,955.31
2018-03-07T01:14:58.937Z,955.30
2018-03-07T01:15:58.852Z,955.34
2018-03-07T01:16:58.766Z,955.32
2018-03-07T01:17:58.684Z,955.35
2018-03-07T01:18:58.597Z,955.32
2018-03-07T01:19:58.512Z,955.30
2018-03-07T01:20:58.430Z,955.35
2018-03-07T01:21:58.345Z,955.35
2018-03-07T01:22:58.258Z,955.36
2018-03-07T01:23:58.173Z,955.34
2018-03-07T01:24:58.092Z,955.33
2018-03-07T01:25:58.005Z,955.36
2018-03-07T01:26:57.919Z,955.33
2018-03-07T01:27:57.837Z,955.32
2018-03-07T01:28:57.753Z,955.35
2018-03-07T01:29:57.669Z,955.36
2018-03-07T01:30:57.586Z,955.31
2018-03-07T01:31:57.511Z,955.33
2018-03-07T01:32:57.414Z,955.35
2018-03-07T01:33:57.329Z,955.35
2018-03-07T01:34:57.248Z,955.34
2018-03-07T01:35:57.158Z,955.29
2018-03-07T01:36:57.079Z,955.31
2018-03-07T01:37:56.991Z,955.32
2018-03-07T01:38:56.906Z,955.36
2018-03-07T01:39:56.821Z,955.32
2018-03-07T01:40:56.737Z,955.35
2018-03-07T01:41:56.651Z,955.33
2018-03-07T01:42:56.571Z,955.31
2018-03-07T01:43:56.483Z,955.29
2018-03-07T01:44:56.396Z,955.29
2018-03-07T01:45:56.315Z,955.28
2018-03-07T01:46:56.229Z,955.30
2018-03-07T01:47:56.149Z,955.31
2018-03-07T01:48:56.060Z,955.31
2018-03-07T01:49:55.976Z,955.30
2018-03-07T01:50:55.892Z,955.27
2018-03-07T01:51:55.804Z,955.28
2018-03-07T01:52:55.722Z,955.26
2018-03-07T01:53:55.635Z,955.32
2018-03-07T01:54:55.551Z,955.28
2018-03-07T01:55:55.475Z,955.28
2018-03-07T01:56:55.384Z,955.29
2018-03-07T01:57:55.298Z,955.31
2018-03-07T01:58:55.212Z,955.27
2018-03-07T01:59:55.142Z,955.30
2018-03-07T02:00:55.046Z,955.25
2018-03-07T02:01:54.959Z,955.30
2018-03-07T02:02:54.923Z,955.29
2018-03-07T02:05:37.379Z,955.25
2018-03-07T02:06:37.246Z,955.26
2018-03-07T02:07:37.168Z,955.23
2018-03-07T02:08:37.079Z,955.24
2018-03-07T02:09:36.993Z,955.26
2018-03-07T02:10:36.905Z,955.25
2018-03-07T02:11:36.823Z,955.28
2018-03-07T02:12:36.737Z,955.24
2018-03-07T02:13:36.654Z,955.24
2018-03-07T02:14:36.569Z,955.24
2018-03-07T02:15:36.486Z,955.25
2018-03-07T02:16:36.398Z,955.27
2018-03-07T02:17:36.314Z,955.27
2018-03-07T02:18:36.229Z,955.29
2018-03-07T02:19:36.147Z,955.31
2018-03-07T02:20:36.061Z,955.31
2018-03-07T02:21:36.022Z,955.34
2018-03-07T02:22:35.892Z,955.28
2018-03-07T02:23:35.811Z,955.32
2018-03-07T02:24:35.725Z,955.26
2018-03-07T02:25:35.639Z,955.28
2018-03-07T02:26:35.569Z,955.24
2018-03-07T02:27:35.469Z,955.22
2018-03-07T02:28:35.385Z,955.23
2018-03-07T02:29:35.302Z,955.23
2018-03-07T02:30:35.221Z,955.24
2018-03-07T02:31:35.134Z,955.24
2018-03-07T02:32:35.046Z,955.27
2018-03-07T02:33:34.966Z,955.25
2018-03-07T02:34:34.891Z,955.27
2018-03-07T02:35:34.797Z,955.20
2018-03-07T02:36:34.717Z,955.22
2018-03-07T02:37:34.627Z,955.23
2018-03-07T02:38:34.540Z,955.23
2018-03-07T02:39:34.455Z,955.24
2018-03-07T02:40:34.371Z,955.25
2018-03-07T02:41:34.288Z,955.24
2018-03-07T02:42:34.204Z,955.22
2018-03-07T02:43:34.134Z,955.24
2018-03-07T02:44:34.034Z,955.24
2018-03-07T02:45:33.948Z,955.24
2018-03-07T02:46:33.862Z,955.29
2018-03-07T02:47:33.777Z,955.29
2018-03-07T02:48:33.694Z,955.27
2018-03-07T02:49:33.610Z,955.31
2018-03-07T02:50:33.525Z,955.31
2018-03-07T02:51:33.441Z,955.29
2018-03-07T02:52:33.358Z,955.23
2018-03-07T02:53:33.271Z,955.24
2018-03-07T02:54:33.186Z,955.25
2018-03-07T02:55:33.106Z,955.24
2018-03-07T02:56:33.017Z,955.24
2018-03-07T02:57:32.932Z,955.21
2018-03-07T02:58:32.850Z,955.24
2018-03-07T02:59:32.764Z,955.24
2018-03-07T03:00:32.694Z,955.23
2018-03-07T03:01:32.595Z,955.21
2018-03-07T03:02:32.514Z,955.22
2018-03-07T03:03:32.427Z,955.23
2018-03-07T03:04:32.339Z,955.18
2018-03-07T03:05:32.257Z,955.19
2018-03-07T03:06:32.171Z,955.20
2018-03-07T03:07:32.086Z,955.24
2018-03-07T03:08:32.006Z,955.24
2018-03-07T03:09:31.918Z,955.21
2018-03-07T03:10:31.833Z,955.26
2018-03-07T03:11:31.752Z,955.25
2018-03-07T03:12:31.664Z,955.31
2018-03-07T03:13:31.578Z,955.25
2018-03-07T03:14:31.494Z,955.28
2018-03-07T03:15:31.410Z,955.28
2018-03-07T03:16:31.326Z,955.29
2018-03-07T03:17:31.242Z,955.31
2018-03-07T03:18:31.155Z,955.31
2018-03-07T03:19:31.070Z,955.33
2018-03-07T03:20:30.987Z,955.36
2018-03-07T03:21:30.918Z,955.37
2018-03-07T03:22:30.818Z,955.36
2018-03-07T03:23:30.732Z,955.40
2018-03-07T03:24:30.648Z,955.39
2018-03-07T03:25:30.563Z,955.43
2018-03-07T03:26:30.478Z,955.42
2018-03-07T03:27:30.393Z,955.44
2018-03-07T03:28:30.309Z,955.43
2018-03-07T03:29:30.226Z,955.48
2018-03-07T03:30:30.141Z,955.49
2018-03-07T03:31:30.058Z,955.51
2018-03-07T03:32:29.972Z,955.44
2018-03-07T03:33:29.889Z,955.49
2018-03-07T03:34:29.807Z,955.51
2018-03-07T03:35:29.718Z,955.48
2018-03-07T03:36:29.644Z,955.50
2018-03-07T03:37:29.550Z,955.51
2018-03-07T03:38:29.463Z,955.45
2018-03-07T03:39:29.393Z,955.50
2018-03-07T03:40:29.295Z,955.49
2018-03-07T03:41:29.212Z,955.47
2018-03-07T03:42:29.127Z,955.44
2018-03-07T03:43:29.040Z,955.48
2018-03-07T03:44:28.958Z,955.47
2018-03-07T03:45:28.873Z,955.46
2018-03-07T03:46:28.787Z,955.52
2018-03-07T03:47:28.704Z,955.49
2018-03-07T03:48:28.618Z,955.48
2018-03-07T03:49:28.534Z,955.45
2018-03-07T03:50:28.449Z,955.46
2018-03-07T03:51:28.364Z,955.44
2018-03-07T03:52:28.281Z,955.47
2018-03-07T03:53:28.195Z,955.50
2018-03-07T03:54:28.113Z,955.50
2018-03-07T03:55:28.024Z,955.53
2018-03-07T03:56:27.941Z,955.58
2018-03-07T03:57:27.865Z,955.59
2018-03-07T03:58:27.775Z,955.61
2018-03-07T03:59:27.687Z,955.63
2018-03-07T04:00:27.610Z,955.60
2018-03-07T04:01:27.519Z,955.64
2018-03-07T04:02:27.434Z,955.62
2018-03-07T04:03:27.352Z,955.60
2018-03-07T04:04:27.266Z,955.63
2018-03-07T04:05:27.179Z,955.64
2018-03-07T04:06:27.096Z,955.67
2018-03-07T04:07:27.024Z,955.65
2018-03-07T04:08:26.928Z,955.66
2018-03-07T04:09:26.847Z,955.67
2018-03-07T04:10:26.758Z,955.68
2018-03-07T04:11:26.680Z,955.66
2018-03-07T04:12:26.590Z,955.64
2018-03-07T04:13:26.505Z,955.65
2018-03-07T04:14:26.421Z,955.66
2018-03-07T04:15:26.341Z,955.71
2018-03-07T04:16:26.254Z,955.70
2018-03-07T04:17:26.168Z,955.69
2018-03-07T04:18:26.098Z,955.68
2018-03-07T04:19:26.001Z,955.72
2018-03-07T04:20:25.915Z,955.75
2018-03-07T04:21:25.831Z,955.71
2018-03-07T04:22:25.758Z,955.73
2018-03-07T04:23:25.665Z,955.72
2018-03-07T04:24:25.577Z,955.73
2018-03-07T04:25:25.493Z,955.69
2018-03-07T04:26:25.410Z,955.77
2018-03-07T04:27:25.325Z,955.74
2018-03-07T04:28:25.240Z,955.75
2018-03-07T04:29:25.156Z,955.77
2018-03-07T04:30:25.073Z,955.75
2018-03-07T04:31:24.986Z,955.77
2018-03-07T04:32:24.903Z,955.76
2018-03-07T04:33:24.818Z,955.76
2018-03-07T04:34:24.744Z,955.78
2018-03-07T04:35:24.650Z,955.77
2018-03-07T04:36:24.566Z,955.79
2018-03-07T04:37:24.482Z,955.79
2018-03-07T04:38:24.396Z,955.80
2018-03-07T04:39:24.312Z,955.82
2018-03-07T04:40:24.229Z,955.85
2018-03-07T04:41:24.144Z,955.82
2018-03-07T04:42:24.061Z,955.82
2018-03-07T04:43:23.977Z,955.84
2018-03-07T04:44:23.895Z,955.81
2018-03-07T04:45:23.806Z,955.80
2018-03-07T04:46:23.725Z,955.82
2018-03-07T04:47:23.640Z,955.83
2018-03-07T04:48:23.555Z,955.85
2018-03-07T04:49:23.469Z,955.87
2018-03-07T04:50:23.386Z,955.84
2018-03-07T04:51:23.301Z,955.89
2018-03-07T04:52:23.221Z,955.88
2018-03-07T04:53:23.134Z,955.87
2018-03-07T04:54:23.053Z,955.89
2018-03-07T04:55:22.968Z,955.92
2018-03-07T04:56:22.881Z,955.90
2018-03-07T04:57:22.795Z,955.90
2018-03-07T04:58:22.712Z,955.94
2018-03-07T04:59:22.628Z,955.94
2018-03-07T05:00:22.544Z,955.96
2018-03-07T05:01:22.461Z,955.93
2018-03-07T05:02:22.375Z,955.98
2018-03-07T05:03:22.290Z,955.93
2018-03-07T05:04:22.215Z,955.93
2018-03-07T05:05:22.122Z,955.93
2018-03-07T05:06:22.038Z,955.96
2018-03-07T05:07:21.955Z,955.96
2018-03-07T05:08:21.871Z,955.98
2018-03-07T05:09:21.784Z,955.99
2018-03-07T05:10:21.702Z,955.98
2018-03-07T05:11:21.617Z,956.00
2018-03-07T05:12:21.533Z,956.01
2018-03-07T05:13:21.461Z,956.02
2018-03-07T05:14:21.363Z,956.03
2018-03-07T05:15:21.280Z,956.02
2018-03-07T05:16:21.196Z,956.02
2018-03-07T05:17:21.113Z,956.04
2018-03-07T05:18:21.029Z,956.01
2018-03-07T05:19:20.944Z,956.05
2018-03-07T05:20:20.860Z,956.05
2018-03-07T05:21:20.777Z,956.05
2018-03-07T05:22:20.699Z,956.07
2018-03-07T05:23:20.606Z,956.06
2018-03-07T05:24:20.533Z,956.06
2018-03-07T05:25:20.439Z,956.08
2018-03-07T05:26:20.362Z,956.08
2018-03-07T05:27:20.274Z,956.06
2018-03-07T05:28:20.186Z,956.10
2018-03-07T05:29:20.103Z,956.11
2018-03-07T05:30:20.020Z,956.13
2018-03-07T05:31:19.941Z,956.11
2018-03-07T05:32:19.850Z,956.08
2018-03-07T05:33:19.766Z,956.10
2018-03-07T05:34:19.683Z,956.11
2018-03-07T05:35:19.598Z,956.12
2018-03-07T05:36:19.515Z,956.12
2018-03-07T05:37:19.430Z,956.12
2018-03-07T05:38:19.360Z,956.10
2018-03-07T05:39:19.264Z,956.12
2018-03-07T05:40:19.186Z,956.11
2018-03-07T05:41:19.094Z,956.12
2018-03-07T05:42:19.010Z,956.16
2018-03-07T05:43:18.925Z,956.21
2018-03-07T05:44:18.842Z,956.16
2018-03-07T05:45:18.758Z,956.16
2018-03-07T05:46:18.673Z,956.17
2018-03-07T05:47:18.591Z,956.20
2018-03-07T05:48:18.508Z,956.21
2018-03-07T05:49:18.421Z,956.21
2018-03-07T05:50:18.337Z,956.20
2018-03-07T05:51:18.253Z,956.20
2018-03-07T05:52:18.180Z,956.24
2018-03-07T05:53:18.085Z,956.26
2018-03-07T05:54:18.000Z,956.28
2018-03-07T05:55:17.917Z,956.30
2018-03-07T05:56:17.835Z,956.27
2018-03-07T05:57:17.750Z,956.30
2018-03-07T05:58:17.665Z,956.32
2018-03-07T05:59:17.581Z,956.33
2018-03-07T06:00:17.502Z,956.31
2018-03-07T06:01:17.413Z,956.29
2018-03-07T06:02:17.328Z,956.33
2018-03-07T06:03:17.243Z,956.35
2018-03-07T06:04:17.161Z,956.34
2018-03-07T06:05:17.076Z,956.42
2018-03-07T06:06:16.994Z,956.41
2018-03-07T06:07:16.907Z,956.40
2018-03-07T06:08:16.823Z,956.43
2018-03-07T06:09:16.740Z,956.41
2018-03-07T06:10:16.654Z,956.45
2018-03-07T06:11:16.572Z,956.43
2018-03-07T06:12:16.489Z,956.44
2018-03-07T06:13:16.402Z,956.44
2018-03-07T06:14:16.319Z,956.48
2018-03-07T06:15:16.254Z,956.49
2018-03-07T06:16:16.150Z,956.46
2018-03-07T06:17:16.067Z,956.49
2018-03-07T06:18:15.986Z,956.51
2018-03-07T06:19:15.900Z,956.52
2018-03-07T06:20:15.813Z,956.52
2018-03-07T06:21:15.730Z,956.51
2018-03-07T06:22:15.644Z,956.59
2018-03-07T06:23:15.560Z,956.56
2018-03-07T06:24:15.481Z,956.55
2018-03-07T06:25:15.394Z,956.59
2018-03-07T06:26:15.312Z,956.56
2018-03-07T06:27:15.224Z,956.59
2018-03-07T06:28:15.146Z,956.59
2018-03-07T06:29:15.058Z,956.62
2018-03-07T06:30:14.973Z,956.63
2018-03-07T06:31:14.888Z,956.65
2018-03-07T06:32:14.806Z,956.69
2018-03-07T06:33:14.722Z,956.65
2018-03-07T06:34:14.636Z,956.62
2018-03-07T06:35:14.553Z,956.67
2018-03-07T06:36:14.472Z,956.62
2018-03-07T06:37:14.389Z,956.68
2018-03-07T06:38:14.300Z,956.72
2018-03-07T06:39:14.218Z,956.72
2018-03-07T06:40:14.138Z,956.77
2018-03-07T06:41:14.047Z,956.75
2018-03-07T06:42:13.966Z,956.82
2018-03-07T06:43:13.896Z,956.87
2018-03-07T06:44:13.800Z,956.89
2018-03-07T06:45:13.714Z,956.93
2018-03-07T06:46:13.630Z,956.93
2018-03-07T06:47:13.546Z,956.95
2018-03-07T06:48:13.463Z,956.95
2018-03-07T06:49:13.390Z,957.01
2018-03-07T06:50:13.308Z,957.01
2018-03-07T06:51:13.212Z,957.05
2018-03-07T06:52:13.125Z,957.05
2018-03-07T06:53:13.042Z,957.05
2018-03-07T06:54:12.961Z,957.04
2018-03-07T06:55:12.878Z,957.07
2018-03-07T06:56:12.792Z,957.10
2018-03-07T06:57:12.706Z,957.07
2018-03-07T06:58:12.633Z,957.08
2018-03-07T06:59:12.537Z,957.06
2018-03-07T07:00:12.455Z,957.13
2018-03-07T07:01:12.378Z,957.15
2018-03-07T07:02:12.292Z,957.16
2018-03-07T07:03:12.205Z,957.20
2018-03-07T07:04:12.120Z,957.18
2018-03-07T07:05:12.043Z,957.26
2018-03-07T07:06:11.955Z,957.29
2018-03-07T07:07:11.868Z,957.25
2018-03-07T07:08:11.783Z,957.25
2018-03-07T07:09:11.700Z,957.34
2018-03-07T07:10:11.632Z,957.37
2018-03-07T07:11:11.536Z,957.36
2018-03-07T07:12:11.447Z,957.37
2018-03-07T07:13:11.363Z,957.44
2018-03-07T07:14:11.278Z,957.37
2018-03-07T07:15:11.197Z,957.44
2018-03-07T07:16:11.112Z,957.41
2018-03-07T07:17:11.040Z,957.42
2018-03-07T07:18:10.948Z,957.47
2018-03-07T07:19:10.863Z,957.48
2018-03-07T07:20:10.779Z,957.48
2018-03-07T07:21:10.693Z,957.55
2018-03-07T07:22:10.669Z,957.51
2018-03-07T07:23:10.526Z,957.55
2018-03-07T07:24:10.492Z,957.53
2018-03-07T07:25:10.371Z,957.58
2018-03-07T07:26:10.296Z,957.62
2018-03-07T07:27:10.197Z,957.66
2018-03-07T07:28:16.966Z,957.62
2018-03-07T07:29:10.024Z,957.62
2018-03-07T07:30:09.943Z,957.63
2018-03-07T07:31:12.469Z,957.68
2018-03-07T07:32:09.777Z,957.66
2018-03-07T07:33:09.705Z,957.67
2018-03-07T07:34:09.651Z,957.65
2018-03-07T07:35:09.573Z,957.66
2018-03-07T07:36:09.508Z,957.68
2018-03-07T07:37:09.422Z,957.72
2018-03-07T07:38:09.328Z,957.76
2018-03-07T07:39:09.240Z,957.74
2018-03-07T07:40:09.160Z,957.81
2018-03-07T07:41:10.000Z,957.83
2018-03-07T07:42:08.996Z,957.78
2018-03-07T07:43:08.907Z,957.78
2018-03-07T07:44:08.784Z,957.83
2018-03-07T07:45:08.744Z,957.86
2018-03-07T07:46:08.656Z,957.88
2018-03-07T07:47:08.589Z,957.90
2018-03-07T07:48:08.497Z,957.88
2018-03-07T07:49:08.415Z,957.89
2018-03-07T07:50:08.340Z,957.88
2018-03-07T07:51:08.262Z,957.94
2018-03-07T07:52:08.171Z,957.88
2018-03-07T07:53:08.082Z,957.93
2018-03-07T07:54:08.538Z,957.96
2018-03-07T07:55:07.923Z,957.89
2018-03-07T07:56:07.818Z,957.90
2018-03-07T07:57:07.751Z,957.91
2018-03-07T07:58:07.671Z,957.95
2018-03-07T07:59:07.575Z,957.96
2018-03-07T08:00:07.509Z,957.97
2018-03-07T08:01:07.417Z,958.02
2018-03-07T08:02:07.329Z,958.00
2018-03-07T08:03:07.250Z,958.04
2018-03-07T08:04:07.168Z,958.09
2018-03-07T08:05:07.086Z,958.06
2018-03-07T08:06:06.992Z,958.06
2018-03-07T08:07:06.915Z,958.08
2018-03-07T08:08:06.834Z,958.09
2018-03-07T08:09:06.755Z,958.09
2018-03-07T08:10:06.669Z,958.05
2018-03-07T08:11:06.567Z,958.13
2018-03-07T08:12:06.544Z,958.09
2018-03-07T08:13:06.412Z,958.10
2018-03-07T08:14:06.326Z,958.12
2018-03-07T08:15:06.253Z,958.21
2018-03-07T08:16:06.166Z,958.16
2018-03-07T08:17:06.091Z,958.14
2018-03-07T08:18:06.584Z,958.21
2018-03-07T08:19:05.922Z,958.17
2018-03-07T08:20:05.828Z,958.19
2018-03-07T08:21:06.531Z,958.18
2018-03-07T08:22:05.676Z,958.23
2018-03-07T08:23:05.596Z,958.27
2018-03-07T08:24:05.494Z,958.24
2018-03-07T08:25:06.039Z,958.30
2018-03-07T08:26:05.331Z,958.32
2018-03-07T08:27:05.263Z,958.32
2018-03-07T08:28:05.173Z,958.31
2018-03-07T08:29:05.084Z,958.30
2018-03-07T08:30:04.992Z,958.32
2018-03-07T08:31:04.935Z,958.36
2018-03-07T08:32:04.838Z,958.42
2018-03-07T08:33:04.739Z,958.41
2018-03-07T08:34:04.692Z,958.39
2018-03-07T08:35:04.596Z,958.43
2018-03-07T08:36:04.508Z,958.42
2018-03-07T08:37:04.436Z,958.41
2018-03-07T08:38:04.331Z,958.42
2018-03-07T08:39:04.243Z,958.47
2018-03-07T08:40:04.194Z,958.50
2018-03-07T08:41:04.099Z,958.55
2018-03-07T08:42:03.998Z,958.61
2018-03-07T08:43:03.933Z,958.60
2018-03-07T08:44:03.882Z,958.56
2018-03-07T08:45:03.779Z,958.59
2018-03-07T08:46:03.700Z,958.62
2018-03-07T08:47:03.605Z,958.62
2018-03-07T08:48:03.515Z,958.57
2018-03-07T08:49:03.420Z,958.67
2018-03-07T08:50:03.369Z,958.62
2018-03-07T08:51:03.295Z,958.62
2018-03-07T08:52:03.180Z,958.64
2018-03-07T08:53:03.103Z,958.74
2018-03-07T08:54:03.517Z,958.70
2018-03-07T08:55:02.924Z,958.65
2018-03-07T08:56:02.875Z,958.74
2018-03-07T08:57:02.772Z,958.70
2018-03-07T08:58:02.685Z,958.71
2018-03-07T08:59:02.626Z,958.73
2018-03-07T09:00:02.546Z,958.71
2018-03-07T09:01:02.451Z,958.75
2018-03-07T09:02:02.372Z,958.76
2018-03-07T09:03:02.304Z,958.73
2018-03-07T09:04:02.201Z,958.75
2018-03-07T09:05:02.121Z,958.78
2018-03-07T09:06:02.040Z,958.82
2018-03-07T09:07:01.940Z,958.84
2018-03-07T09:08:01.882Z,958.84
2018-03-07T09:09:01.792Z,958.84
2018-03-07T09:10:01.719Z,958.86
2018-03-07T09:11:01.623Z,958.85
2018-03-07T09:12:01.560Z,958.83
2018-03-07T09:13:01.459Z,958.88
2018-03-07T09:14:01.390Z,958.87
2018-03-07T09:15:01.295Z,958.89
2018-03-07T09:16:01.226Z,958.97
2018-03-07T09:17:01.139Z,958.86
2018-03-07T09:18:01.049Z,958.89
2018-03-07T09:19:01.546Z,958.85
2018-03-07T09:20:00.867Z,958.91
2018-03-07T09:21:00.813Z,958.96
2018-03-07T09:22:00.708Z,958.97
2018-03-07T09:23:00.648Z,958.94
2018-03-07T09:24:00.561Z,958.94
2018-03-07T09:25:00.485Z,958.99
2018-03-07T09:26:00.375Z,958.94
2018-03-07T09:27:00.306Z,958.97
2018-03-07T09:28:00.222Z,959.03
2018-03-07T09:29:01.103Z,958.93
2018-03-07T09:30:00.066Z,959.02
2018-03-07T09:30:59.946Z,958.97
2018-03-07T09:31:59.897Z,958.97
2018-03-07T09:32:59.826Z,959.02
2018-03-07T09:33:59.743Z,959.01
2018-03-07T09:34:59.658Z,959.03
2018-03-07T09:35:59.570Z,959.05
2018-03-07T09:36:59.466Z,959.05
2018-03-07T09:37:59.405Z,959.12
2018-03-07T09:38:59.339Z,959.05
2018-03-07T09:40:00.066Z,959.09
2018-03-07T09:40:59.166Z,959.05
2018-03-07T09:41:59.081Z,959.15
2018-03-07T09:42:59.005Z,959.12
2018-03-07T09:43:58.914Z,959.14
2018-03-07T09:44:58.841Z,959.14
2018-03-07T09:45:58.759Z,959.10
2018-03-07T09:46:58.642Z,959.10
2018-03-07T09:47:58.569Z,959.13
2018-03-07T09:48:58.520Z,959.16
2018-03-07T09:49:58.435Z,959.15
2018-03-07T09:50:58.347Z,959.22
2018-03-07T09:51:58.244Z,959.17
2018-03-07T09:52:58.187Z,959.21
2018-03-07T09:53:59.069Z,959.21
2018-03-07T09:54:58.007Z,959.30
2018-03-07T09:55:57.941Z,959.29
2018-03-07T09:56:57.840Z,959.29
2018-03-07T09:57:57.758Z,959.26
2018-03-07T09:58:57.690Z,959.29
2018-03-07T09:59:57.589Z,959.33
2018-03-07T10:00:57.528Z,959.27
2018-03-07T10:01:57.493Z,959.32
2018-03-07T10:02:57.359Z,959.30
2018-03-07T10:03:57.277Z,959.33
2018-03-07T10:04:57.208Z,959.29
2018-03-07T10:05:57.107Z,959.26
2018-03-07T10:06:57.035Z,959.30
2018-03-07T10:07:56.975Z,959.28
2018-03-07T10:08:56.865Z,959.29
2018-03-07T10:09:56.801Z,959.32
2018-03-07T10:10:56.707Z,959.34
2018-03-07T10:11:56.627Z,959.36
2018-03-07T10:12:56.567Z,959.33
2018-03-07T10:13:56.480Z,959.38
2018-03-07T10:14:56.376Z,959.38
2018-03-07T10:15:56.290Z,959.39
2018-03-07T10:16:56.218Z,959.39
2018-03-07T10:17:56.156Z,959.39
2018-03-07T10:18:56.069Z,959.39
2018-03-07T10:19:55.988Z,959.34
2018-03-07T10:20:55.921Z,959.42
2018-03-07T10:21:56.560Z,959.35
2018-03-07T10:22:55.781Z,959.37
2018-03-07T10:23:55.678Z,959.38
2018-03-07T10:24:55.589Z,959.40
2018-03-07T10:25:55.512Z,959.38
2018-03-07T10:26:55.437Z,959.34
2018-03-07T10:27:55.359Z,959.38
2018-03-07T10:28:55.268Z,959.40
2018-03-07T10:29:55.200Z,959.43
2018-03-07T10:30:56.068Z,959.45
2018-03-07T10:31:54.998Z,959.44
2018-03-07T10:32:54.931Z,959.38
2018-03-07T10:33:54.889Z,959.41
2018-03-07T10:34:54.793Z,959.50
2018-03-07T10:35:54.708Z,959.40
2018-03-07T10:36:54.641Z,959.40
2018-03-07T10:37:54.533Z,959.43
2018-03-07T10:38:54.453Z,959.43
2018-03-07T10:39:55.039Z,959.52
2018-03-07T10:40:54.308Z,959.43
2018-03-07T10:41:54.258Z,959.45
2018-03-07T10:42:54.160Z,959.46
2018-03-07T10:43:54.035Z,959.49
2018-03-07T10:44:53.978Z,959.50
2018-03-07T10:45:53.909Z,959.50
2018-03-07T10:46:53.834Z,959.53
2018-03-07T10:47:53.756Z,959.55
2018-03-07T10:48:53.643Z,959.56
2018-03-07T10:49:53.601Z,959.57
2018-03-07T10:50:53.499Z,959.60
2018-03-07T10:51:53.440Z,959.65
2018-03-07T10:52:53.356Z,959.66
2018-03-07T10:53:53.263Z,959.73
2018-03-07T10:54:53.165Z,959.66
2018-03-07T10:55:53.098Z,959.69
2018-03-07T10:56:53.005Z,959.67
2018-03-07T10:57:52.943Z,959.70
2018-03-07T10:58:52.854Z,959.74
2018-03-07T10:59:52.779Z,959.75
2018-03-07T11:00:52.705Z,959.79
2018-03-07T11:01:52.645Z,959.76
2018-03-07T11:02:52.514Z,959.76
2018-03-07T11:03:52.476Z,959.87
2018-03-07T11:04:52.393Z,959.82
2018-03-07T11:05:52.281Z,959.80
2018-03-07T11:06:52.245Z,959.90
2018-03-07T11:07:52.158Z,959.79
2018-03-07T11:08:52.081Z,959.86
2018-03-07T11:09:52.005Z,959.84
2018-03-07T11:10:51.908Z,959.89
2018-03-07T11:11:51.826Z,959.94
2018-03-07T11:12:52.559Z,959.83
2018-03-07T11:13:52.562Z,959.83
2018-03-07T11:14:51.613Z,959.88
2018-03-07T11:15:51.517Z,959.90
2018-03-07T11:16:51.410Z,959.88
2018-03-07T11:17:51.332Z,959.86
2018-03-07T11:18:51.265Z,959.87
2018-03-07T11:19:51.206Z,959.87
2018-03-07T11:20:51.151Z,959.97
2018-03-07T11:21:51.065Z,959.87
2018-03-07T11:22:50.998Z,959.84
2018-03-07T11:23:50.918Z,959.89
2018-03-07T11:24:50.787Z,959.84
2018-03-07T11:25:50.750Z,959.87
2018-03-07T11:26:50.680Z,959.82
2018-03-07T11:27:50.570Z,959.88
2018-03-07T11:28:50.511Z,959.93
2018-03-07T11:29:50.417Z,960.00
2018-03-07T11:30:50.337Z,959.90
2018-03-07T11:31:50.307Z,959.88
2018-03-07T11:32:50.186Z,959.91
2018-03-07T11:33:50.086Z,959.93
2018-03-07T11:34:50.046Z,960.04
2018-03-07T11:35:49.917Z,960.04
2018-03-07T11:36:49.875Z,959.91
2018-03-07T11:37:49.769Z,959.98
2018-03-07T11:38:49.703Z,959.95
2018-03-07T11:39:49.689Z,959.92
2018-03-07T11:40:49.527Z,959.99
2018-03-07T11:41:49.510Z,959.93
2018-03-07T11:42:49.432Z,959.89
2018-03-07T11:43:49.354Z,959.86
2018-03-07T11:44:49.286Z,959.84
2018-03-07T11:45:49.168Z,959.87
2018-03-07T11:46:49.117Z,959.90
2018-03-07T11:47:49.049Z,959.90
2018-03-07T11:48:48.981Z,959.83
2018-03-07T11:49:48.888Z,959.80
2018-03-07T11:50:48.815Z,959.76
2018-03-07T11:51:48.740Z,959.79
2018-03-07T11:52:48.674Z,959.83
2018-03-07T11:53:48.581Z,959.80
2018-03-07T11:54:48.507Z,959.86
2018-03-07T11:55:48.432Z,959.84
2018-03-07T11:56:48.354Z,959.83
2018-03-07T11:57:48.279Z,959.82
2018-03-07T11:58:48.190Z,959.83
2018-03-07T11:59:48.115Z,959.85
2018-03-07T12:00:48.045Z,959.86
2018-03-07T12:01:47.978Z,959.84
2018-03-07T12:02:47.905Z,959.82
2018-03-07T12:03:48.625Z,959.81
2018-03-07T12:04:48.596Z,959.83
2018-03-07T12:05:47.655Z,959.88
2018-03-07T12:06:47.674Z,959.84
2018-03-07T12:07:47.496Z,959.83
2018-03-07T12:08:47.413Z,959.88
2018-03-07T12:09:47.338Z,959.91
2018-03-07T12:10:47.260Z,959.88
2018-03-07T12:11:47.154Z,959.89
2018-03-07T12:12:47.594Z,959.90
2018-03-07T12:13:48.601Z,959.89
2018-03-07T12:14:47.601Z,959.85
2018-03-07T12:15:47.596Z,959.80
2018-03-07T12:16:46.779Z,959.82
2018-03-07T12:17:46.705Z,959.83
2018-03-07T12:18:46.619Z,959.83
2018-03-07T12:19:46.559Z,959.83
2018-03-07T12:20:46.475Z,959.83
2018-03-07T12:21:46.385Z,959.81
2018-03-07T12:22:47.095Z,959.80
2018-03-07T12:23:46.221Z,959.81
2018-03-07T12:24:46.146Z,959.81
2018-03-07T12:25:46.070Z,959.74
2018-03-07T12:26:45.990Z,959.76
2018-03-07T12:27:45.909Z,959.77
2018-03-07T12:28:45.823Z,959.77